Map

Track Data

SID SEASON NUMBER BASIN SUBBASIN NAME ISO_TIME NATURE LAT LON WMO_WIND WMO_PRES WMO_AGENCY TRACK_TYPE DIST2LAND LANDFALL IFLAG USA_AGENCY USA_ATCF_ID USA_LAT USA_LON USA_RECORD USA_STATUS USA_WIND USA_PRES USA_SSHS USA_R34_NE USA_R34_SE USA_R34_SW USA_R34_NW USA_R50_NE USA_R50_SE USA_R50_SW USA_R50_NW USA_R64_NE USA_R64_SE USA_R64_SW USA_R64_NW USA_POCI USA_ROCI USA_RMW USA_EYE TOKYO_LAT TOKYO_LON TOKYO_GRADE TOKYO_WIND TOKYO_PRES TOKYO_R50_DIR TOKYO_R50_LONG TOKYO_R50_SHORT TOKYO_R30_DIR TOKYO_R30_LONG TOKYO_R30_SHORT TOKYO_LAND CMA_LAT CMA_LON CMA_CAT CMA_WIND CMA_PRES HKO_LAT HKO_LON HKO_CAT HKO_WIND HKO_PRES NEWDELHI_LAT NEWDELHI_LON NEWDELHI_GRADE NEWDELHI_WIND NEWDELHI_PRES NEWDELHI_CI NEWDELHI_DP NEWDELHI_POCI REUNION_LAT REUNION_LON REUNION_TYPE REUNION_WIND REUNION_PRES REUNION_TNUM REUNION_CI REUNION_RMW REUNION_R34_NE REUNION_R34_SE REUNION_R34_SW REUNION_R34_NW REUNION_R50_NE REUNION_R50_SE REUNION_R50_SW REUNION_R50_NW REUNION_R64_NE REUNION_R64_SE REUNION_R64_SW REUNION_R64_NW BOM_LAT BOM_LON BOM_TYPE BOM_WIND BOM_PRES BOM_TNUM BOM_CI BOM_RMW BOM_R34_NE BOM_R34_SE BOM_R34_SW BOM_R34_NW BOM_R50_NE BOM_R50_SE BOM_R50_SW BOM_R50_NW BOM_R64_NE BOM_R64_SE BOM_R64_SW BOM_R64_NW BOM_ROCI BOM_POCI BOM_EYE BOM_POS_METHOD BOM_PRES_METHOD NADI_LAT NADI_LON NADI_CAT NADI_WIND NADI_PRES WELLINGTON_LAT WELLINGTON_LON WELLINGTON_WIND WELLINGTON_PRES DS824_LAT DS824_LON DS824_STAGE DS824_WIND DS824_PRES TD9636_LAT TD9636_LON TD9636_STAGE TD9636_WIND TD9636_PRES TD9635_LAT TD9635_LON TD9635_WIND TD9635_PRES TD9635_ROCI NEUMANN_LAT NEUMANN_LON NEUMANN_CLASS NEUMANN_WIND NEUMANN_PRES MLC_LAT MLC_LON MLC_CLASS MLC_WIND MLC_PRES USA_GUST BOM_GUST BOM_GUST_PER REUNION_GUST REUNION_GUST_PER USA_SEAHGT USA_SEARAD_NE USA_SEARAD_SE USA_SEARAD_SW USA_SEARAD_NW STORM_SPEED STORM_DIR
1885011S17063 1885 4 SI MM NOT_NAMED 1885-01-11 06:00:00 NR -16.6000 62.9000 reunion main 674 665 _____O________ -1 -16.6000 62.9000 99 9.90000 1 242
1885011S17063 1885 4 SI MM NOT_NAMED 1885-01-11 09:00:00 NR -16.6266 62.8362 main 665 658 _____P________ -1 -16.6266 62.8362 99 1 246
1885011S17063 1885 4 SI MM NOT_NAMED 1885-01-11 12:00:00 NR -16.6555 62.7666 main 658 650 _____P________ -1 -16.6555 62.7666 99 2 246
1885011S17063 1885 4 SI MM NOT_NAMED 1885-01-11 15:00:00 NR -16.6888 62.6853 main 650 641 _____P________ -1 -16.6888 62.6853 99 2 247
1885011S17063 1885 4 SI MM NOT_NAMED 1885-01-11 18:00:00 NR -16.7289 62.5866 main 641 626 _____P________ -1 -16.7289 62.5866 99 2 247
1885011S17063 1885 4 SI MM NOT_NAMED 1885-01-11 21:00:00 NR -16.7778 62.4646 main 626 609 _____P________ -1 -16.7778 62.4646 99 3 248
1885011S17063 1885 4 SI MM NOT_NAMED 1885-01-12 00:00:00 NR -16.8379 62.3134 main 609 586 _____P________ -1 -16.8379 62.3134 99 4 248
1885011S17063 1885 4 SI MM NOT_NAMED 1885-01-12 03:00:00 NR -16.9112 62.1272 main 586 562 _____P________ -1 -16.9112 62.1272 99 4 248
1885011S17063 1885 4 SI MM NOT_NAMED 1885-01-12 06:00:00 NR -17.0000 61.9000 reunion main 562 530 _____O________ -1 -17.0000 61.9000 99 9.90000 5 248
1885011S17063 1885 4 SI MM NOT_NAMED 1885-01-12 09:00:00 NR -17.1055 61.6281 main 530 499 _____P________ -1 -17.1055 61.6281 99 6 248
1885011S17063 1885 4 SI MM NOT_NAMED 1885-01-12 12:00:00 NR -17.2256 61.3162 main 499 467 _____P________ -1 -17.2256 61.3162 99 7 248
1885011S17063 1885 4 SI MM NOT_NAMED 1885-01-12 15:00:00 NR -17.3576 60.9714 main 460 421 _____P________ -1 -17.3576 60.9714 99 7 248
1885011S17063 1885 4 SI MM NOT_NAMED 1885-01-12 18:00:00 NR -17.4987 60.6006 main 421 383 _____P________ -1 -17.4987 60.6006 99 8 248
1885011S17063 1885 4 SI MM NOT_NAMED 1885-01-12 21:00:00 NR -17.6462 60.2110 main 383 339 _____P________ -1 -17.6462 60.2110 99 8 248
1885011S17063 1885 4 SI MM NOT_NAMED 1885-01-13 00:00:00 NR -17.7973 59.8096 main 339 304 _____P________ -1 -17.7973 59.8096 99 8 248
1885011S17063 1885 4 SI MM NOT_NAMED 1885-01-13 03:00:00 NR -17.9494 59.4036 main 304 262 _____P________ -1 -17.9494 59.4036 99 8 249
1885011S17063 1885 4 SI MM NOT_NAMED 1885-01-13 06:00:00 NR -18.1000 59.0000 reunion main 262 232 _____O________ -1 -18.1000 59.0000 99 9.90000 8 249
1885011S17063 1885 4 SI MM NOT_NAMED 1885-01-13 09:00:00 NR -18.2474 58.5975 main 232 197 _____P________ -1 -18.2474 58.5975 99 8 249
1885011S17063 1885 4 SI MM NOT_NAMED 1885-01-13 12:00:00 NR -18.3961 58.1889 main 197 179 _____P________ -1 -18.3961 58.1889 99 8 249
1885011S17063 1885 4 SI MM NOT_NAMED 1885-01-13 15:00:00 NR -18.5440 57.7812 main 179 156 _____P________ -1 -18.5440 57.7812 99 8 249
1885011S17063 1885 4 SI MM NOT_NAMED 1885-01-13 18:00:00 NR -18.6889 57.3813 main 156 148 _____P________ -1 -18.6889 57.3813 99 8 249
1885011S17063 1885 4 SI MM NOT_NAMED 1885-01-13 21:00:00 NR -18.8289 56.9961 main 154 148 _____P________ -1 -18.8289 56.9961 99 8 249
1885011S17063 1885 4 SI MM NOT_NAMED 1885-01-14 00:00:00 NR -18.9620 56.6328 main 155 155 _____P________ -1 -18.9620 56.6328 99 7 249
1885011S17063 1885 4 SI MM NOT_NAMED 1885-01-14 03:00:00 NR -19.0863 56.2984 main 168 168 _____P________ -1 -19.0863 56.2984 99 6 248
1885011S17063 1885 4 SI MM NOT_NAMED 1885-01-14 06:00:00 NR -19.2000 56.0000 reunion main 186 186 _____O________ -1 -19.2000 56.0000 99 9.90000 6 247
1885011S17063 1885 4 SI MM NOT_NAMED 1885-01-14 09:00:00 NR -19.3049 55.7426 main 190 178 _____P________ -1 -19.3049 55.7426 99 5 246
1885011S17063 1885 4 SI MM NOT_NAMED 1885-01-14 12:00:00 NR -19.4006 55.5194 main 178 167 _____P________ -1 -19.4006 55.5194 99 4 245
1885011S17063 1885 4 SI MM NOT_NAMED 1885-01-14 15:00:00 NR -19.4874 55.3268 main 167 156 _____P________ -1 -19.4874 55.3268 99 4 244
1885011S17063 1885 4 SI MM NOT_NAMED 1885-01-14 18:00:00 NR -19.5657 55.1615 main 156 156 _____P________ -1 -19.5657 55.1615 99 3 243
1885011S17063 1885 4 SI MM NOT_NAMED 1885-01-14 21:00:00 NR -19.6358 55.0197 main 159 148 _____P________ -1 -19.6358 55.0197 99 3 242
1885011S17063 1885 4 SI MM NOT_NAMED 1885-01-15 00:00:00 NR -19.6980 54.8979 main 151 151 _____P________ -1 -19.6980 54.8979 99 2 241
1885011S17063 1885 4 SI MM NOT_NAMED 1885-01-15 03:00:00 NR -19.7527 54.7925 main 143 143 _____P________ -1 -19.7527 54.7925 99 2 241
1885011S17063 1885 4 SI MM NOT_NAMED 1885-01-15 06:00:00 NR -19.8000 54.7000 reunion main 148 148 _____O________ -1 -19.8000 54.7000 99 9.90000 2 242
1885011S17063 1885 4 SI MM NOT_NAMED 1885-01-15 09:00:00 NR -19.8404 54.6172 main 152 143 _____P________ -1 -19.8404 54.6172 99 2 244
1885011S17063 1885 4 SI MM NOT_NAMED 1885-01-15 12:00:00 NR -19.8746 54.5425 main 148 148 _____P________ -1 -19.8746 54.5425 99 1 245
1885011S17063 1885 4 SI MM NOT_NAMED 1885-01-15 15:00:00 NR -19.9036 54.4747 main 148 148 _____P________ -1 -19.9036 54.4747 99 1 246
1885011S17063 1885 4 SI MM NOT_NAMED 1885-01-15 18:00:00 NR -19.9281 54.4128 main 154 154 _____P________ -1 -19.9281 54.4128 99 1 247
1885011S17063 1885 4 SI MM NOT_NAMED 1885-01-15 21:00:00 NR -19.9492 54.3555 main 154 145 _____P________ -1 -19.9492 54.3555 99 1 249
1885011S17063 1885 4 SI MM NOT_NAMED 1885-01-16 00:00:00 NR -19.9676 54.3017 main 152 152 _____P________ -1 -19.9676 54.3017 99 1 250
1885011S17063 1885 4 SI MM NOT_NAMED 1885-01-16 03:00:00 NR -19.9842 54.2503 main 152 152 _____P________ -1 -19.9842 54.2503 99 1 252
1885011S17063 1885 4 SI MM NOT_NAMED 1885-01-16 06:00:00 NR -20.0000 54.2000 reunion main 160 _____O________ -1 -20.0000 54.2000 99 9.90000 1 247

About IBTrACS Database

This database is a web-friendly format of International Best Track Archive for Climate Stewardship (IBTrACS), a global best track data archive curated by NOAA dating back to 1842.

Updated: 2021-12-03